Fairmont, WV (26554)

9:53 AM EST on February 24, 2017 (GMT -0500)
East Fairmont | | Change Station

Elev 1004 ft 39.48 °N, 80.13 °W | Updated 7 minutes ago

Mostly Cloudy
Mostly Cloudy
56.9 °F
Feels Like 56.9 °F
N
0.0
Wind Variable Wind from SSW
Gusts 0.0 mph

Today
High -- | Low -- °F
--% Chance of Precip.
Yesterday
High -- | Low -- °F
Precip. -- in
Pressure 29.84 in
Visibility 10.0 miles
Clouds Scattered Clouds 7000 ft
Overcast 8000 ft
Dew Point 53 °F
Humidity 85%
Rainfall 0.00 in
Snow Depth Not available.
7:00 AM 6:07 PM
Waning Crescent, 5% visible
METAR KCKB 241353Z AUTO 00000KT 10SM SCT070 OVC080 13/11 A2986 RMK AO2 SLP103 T01330111
Pressure 29.84 in
Visibility 10.0 miles
Clouds Scattered Clouds 7000 ft
Overcast 8000 ft
Dew Point 53 °F
Humidity 85%
Rainfall 0.00 in
Snow Depth Not available.
7:00 AM 6:07 PM
Waning Crescent, 5% visible
METAR KCKB 241353Z AUTO 00000KT 10SM SCT070 OVC080 13/11 A2986 RMK AO2 SLP103 T01330111

Get Your Daily Forecast Email!

Thanks for signing up!

Be on the lookout for a verification email in your inbox.

You'll start receiving the daily forecast at 8 AM.

×

10-Day Weather Forecast

Almanac

Astronomy

Feb. 24, 2017 Rise Set
Actual Time
Civil Twilight
Nautical Twilight
Astronomical Twilight
Moon
Length of Visible Light
Length of Day
Tomorrow will be .
, % of the Moon is Illuminated

Today's Extremes

State Highs State Lows

Community

WunderPhotos

Upload Photos

1,962,540 photos uploaded!

WunderBlog® & News

Nearby

Air Quality

  Air Quality AQ Index Pollutant
Not available.

Snow Depth

Station Depth Elevation

Earthquake Activity

City Distance Mag. Time & Date
Minimum magnitude displayed is 2.5.

Coastal Water Temperatures

Place Temperature

Stations

Nearby Weather Stations

Station Location Temp. Windchill Dew Point Humidity Wind Precip. Elev Updated Type
                   

Watches & Warnings

There are currently no watches in effect.